sensor_id;sensor_type;location;lat;lon;timestamp;temperature;humidity
51500;DHT22;39101;53.478;6.158;2023-05-29T00:00:28;10.30;99.90
51500;DHT22;39101;53.478;6.158;2023-05-29T00:02:54;10.20;99.90
51500;DHT22;39101;53.478;6.158;2023-05-29T00:05:20;10.20;99.90
51500;DHT22;39101;53.478;6.158;2023-05-29T00:07:46;10.20;99.90
51500;DHT22;39101;53.478;6.158;2023-05-29T00:10:12;10.20;99.90
51500;DHT22;39101;53.478;6.158;2023-05-29T00:12:38;10.20;99.90
51500;DHT22;39101;53.478;6.158;2023-05-29T00:15:05;10.20;99.90
51500;DHT22;39101;53.478;6.158;2023-05-29T00:17:31;10.30;99.90
51500;DHT22;39101;53.478;6.158;2023-05-29T00:20:01;10.30;99.90
51500;DHT22;39101;53.478;6.158;2023-05-29T00:22:28;10.30;99.90
51500;DHT22;39101;53.478;6.158;2023-05-29T00:24:54;10.30;99.90
51500;DHT22;39101;53.478;6.158;2023-05-29T00:27:20;10.30;99.90
51500;DHT22;39101;53.478;6.158;2023-05-29T00:29:46;10.30;99.90
51500;DHT22;39101;53.478;6.158;2023-05-29T00:32:12;10.30;99.90
51500;DHT22;39101;53.478;6.158;2023-05-29T00:34:37;10.20;99.90
51500;DHT22;39101;53.478;6.158;2023-05-29T00:37:03;10.20;99.90
51500;DHT22;39101;53.478;6.158;2023-05-29T00:39:29;10.20;99.90
51500;DHT22;39101;53.478;6.158;2023-05-29T00:41:54;10.20;99.90
51500;DHT22;39101;53.478;6.158;2023-05-29T00:44:21;10.30;99.90
51500;DHT22;39101;53.478;6.158;2023-05-29T00:46:49;10.20;99.90
51500;DHT22;39101;53.478;6.158;2023-05-29T00:49:16;10.30;99.90
51500;DHT22;39101;53.478;6.158;2023-05-29T00:51:43;10.30;99.90
51500;DHT22;39101;53.478;6.158;2023-05-29T00:54:12;10.30;99.90
51500;DHT22;39101;53.478;6.158;2023-05-29T00:56:41;10.30;99.90
51500;DHT22;39101;53.478;6.158;2023-05-29T00:59:09;10.30;99.90
51500;DHT22;39101;53.478;6.158;2023-05-29T01:01:35;10.30;99.90
51500;DHT22;39101;53.478;6.158;2023-05-29T01:04:03;10.30;99.90
51500;DHT22;39101;53.478;6.158;2023-05-29T01:06:32;10.40;99.90
51500;DHT22;39101;53.478;6.158;2023-05-29T01:08:58;10.30;99.90
51500;DHT22;39101;53.478;6.158;2023-05-29T01:11:50;10.30;99.90
51500;DHT22;39101;53.478;6.158;2023-05-29T01:20:02;10.30;99.90
51500;DHT22;39101;53.478;6.158;2023-05-29T01:23:04;10.40;99.90
51500;DHT22;39101;53.478;6.158;2023-05-29T01:28:35;10.30;99.90
51500;DHT22;39101;53.478;6.158;2023-05-29T01:31:04;10.30;99.90
51500;DHT22;39101;53.478;6.158;2023-05-29T01:33:29;10.40;99.90
51500;DHT22;39101;53.478;6.158;2023-05-29T01:35:55;10.30;99.90
51500;DHT22;39101;53.478;6.158;2023-05-29T01:38:21;10.30;99.90
51500;DHT22;39101;53.478;6.158;2023-05-29T01:40:47;10.30;99.90
51500;DHT22;39101;53.478;6.158;2023-05-29T01:43:13;10.30;99.90
51500;DHT22;39101;53.478;6.158;2023-05-29T01:45:39;10.30;99.90
51500;DHT22;39101;53.478;6.158;2023-05-29T01:48:06;10.30;99.90
51500;DHT22;39101;53.478;6.158;2023-05-29T01:50:32;10.20;99.90
51500;DHT22;39101;53.478;6.158;2023-05-29T01:52:58;10.20;99.90
51500;DHT22;39101;53.478;6.158;2023-05-29T01:55:23;10.20;99.90
51500;DHT22;39101;53.478;6.158;2023-05-29T01:57:50;10.20;99.90
51500;DHT22;39101;53.478;6.158;2023-05-29T02:00:16;10.20;99.90
51500;DHT22;39101;53.478;6.158;2023-05-29T02:02:42;10.20;99.90
51500;DHT22;39101;53.478;6.158;2023-05-29T02:05:08;10.20;99.90
51500;DHT22;39101;53.478;6.158;2023-05-29T02:07:35;10.30;99.90
51500;DHT22;39101;53.478;6.158;2023-05-29T02:10:03;10.20;99.90
51500;DHT22;39101;53.478;6.158;2023-05-29T02:12:29;10.30;99.90
51500;DHT22;39101;53.478;6.158;2023-05-29T02:14:55;10.30;99.90
51500;DHT22;39101;53.478;6.158;2023-05-29T02:17:20;10.20;99.90
51500;DHT22;39101;53.478;6.158;2023-05-29T02:19:46;10.30;99.90
51500;DHT22;39101;53.478;6.158;2023-05-29T02:22:12;10.30;99.90
51500;DHT22;39101;53.478;6.158;2023-05-29T02:24:37;10.30;99.90
51500;DHT22;39101;53.478;6.158;2023-05-29T02:27:03;10.30;99.90
51500;DHT22;39101;53.478;6.158;2023-05-29T02:29:29;10.30;99.90
51500;DHT22;39101;53.478;6.158;2023-05-29T02:31:55;10.40;99.90
51500;DHT22;39101;53.478;6.158;2023-05-29T02:34:21;10.40;99.90
51500;DHT22;39101;53.478;6.158;2023-05-29T02:36:49;10.30;99.90
51500;DHT22;39101;53.478;6.158;2023-05-29T02:39:14;10.30;99.90
51500;DHT22;39101;53.478;6.158;2023-05-29T02:41:40;10.40;99.90
51500;DHT22;39101;53.478;6.158;2023-05-29T02:44:06;10.30;99.90
51500;DHT22;39101;53.478;6.158;2023-05-29T02:46:31;10.30;99.90
51500;DHT22;39101;53.478;6.158;2023-05-29T02:48:57;10.20;99.90
51500;DHT22;39101;53.478;6.158;2023-05-29T02:51:22;10.20;99.90
51500;DHT22;39101;53.478;6.158;2023-05-29T02:53:48;10.20;99.90
51500;DHT22;39101;53.478;6.158;2023-05-29T02:56:14;10.10;99.90
51500;DHT22;39101;53.478;6.158;2023-05-29T02:58:41;10.10;99.90
51500;DHT22;39101;53.478;6.158;2023-05-29T03:01:07;10.20;99.90
51500;DHT22;39101;53.478;6.158;2023-05-29T03:03:33;10.10;99.90
51500;DHT22;39101;53.478;6.158;2023-05-29T03:05:59;10.10;99.90
51500;DHT22;39101;53.478;6.158;2023-05-29T03:08:26;10.10;99.90
51500;DHT22;39101;53.478;6.158;2023-05-29T03:10:54;10.10;99.90
51500;DHT22;39101;53.478;6.158;2023-05-29T03:13:19;10.10;99.90
51500;DHT22;39101;53.478;6.158;2023-05-29T03:15:45;10.10;99.90
51500;DHT22;39101;53.478;6.158;2023-05-29T03:18:11;10.10;99.90
51500;DHT22;39101;53.478;6.158;2023-05-29T03:20:37;10.10;99.90
51500;DHT22;39101;53.478;6.158;2023-05-29T03:23:03;10.10;99.90
51500;DHT22;39101;53.478;6.158;2023-05-29T03:25:28;10.10;99.90
51500;DHT22;39101;53.478;6.158;2023-05-29T03:27:54;10.00;99.90
51500;DHT22;39101;53.478;6.158;2023-05-29T03:30:20;10.00;99.90
51500;DHT22;39101;53.478;6.158;2023-05-29T03:32:46;10.00;99.90
51500;DHT22;39101;53.478;6.158;2023-05-29T03:35:11;10.00;99.90
51500;DHT22;39101;53.478;6.158;2023-05-29T03:37:37;10.00;99.90
51500;DHT22;39101;53.478;6.158;2023-05-29T03:40:03;10.00;99.90
51500;DHT22;39101;53.478;6.158;2023-05-29T03:42:30;10.00;99.90
51500;DHT22;39101;53.478;6.158;2023-05-29T03:44:56;10.00;99.90
51500;DHT22;39101;53.478;6.158;2023-05-29T03:47:22;10.00;99.90
51500;DHT22;39101;53.478;6.158;2023-05-29T03:49:48;10.00;99.90
51500;DHT22;39101;53.478;6.158;2023-05-29T03:52:14;10.00;99.90
51500;DHT22;39101;53.478;6.158;2023-05-29T03:54:40;10.00;99.90
51500;DHT22;39101;53.478;6.158;2023-05-29T03:57:05;10.00;99.90
51500;DHT22;39101;53.478;6.158;2023-05-29T03:59:32;10.00;99.90
51500;DHT22;39101;53.478;6.158;2023-05-29T04:01:58;10.00;99.90
51500;DHT22;39101;53.478;6.158;2023-05-29T04:04:24;9.90;99.90
51500;DHT22;39101;53.478;6.158;2023-05-29T04:06:49;10.00;99.90
51500;DHT22;39101;53.478;6.158;2023-05-29T04:09:15;10.00;99.90
51500;DHT22;39101;53.478;6.158;2023-05-29T04:11:41;9.90;99.90
51500;DHT22;39101;53.478;6.158;2023-05-29T04:14:07;10.00;99.90
51500;DHT22;39101;53.478;6.158;2023-05-29T04:16:33;10.00;99.90
51500;DHT22;39101;53.478;6.158;2023-05-29T04:18:58;10.00;99.90
51500;DHT22;39101;53.478;6.158;2023-05-29T04:21:24;10.00;99.90
51500;DHT22;39101;53.478;6.158;2023-05-29T04:23:50;10.00;99.90
51500;DHT22;39101;53.478;6.158;2023-05-29T04:26:15;10.00;99.90
51500;DHT22;39101;53.478;6.158;2023-05-29T04:28:41;10.00;99.90
51500;DHT22;39101;53.478;6.158;2023-05-29T04:31:08;10.20;99.90
51500;DHT22;39101;53.478;6.158;2023-05-29T04:33:33;10.10;99.90
51500;DHT22;39101;53.478;6.158;2023-05-29T04:36:02;10.20;99.90
51500;DHT22;39101;53.478;6.158;2023-05-29T04:38:29;10.10;99.90
51500;DHT22;39101;53.478;6.158;2023-05-29T04:40:56;10.10;99.90
51500;DHT22;39101;53.478;6.158;2023-05-29T04:43:24;10.20;99.90
51500;DHT22;39101;53.478;6.158;2023-05-29T04:45:52;10.10;99.90
51500;DHT22;39101;53.478;6.158;2023-05-29T04:48:18;10.20;99.90
51500;DHT22;39101;53.478;6.158;2023-05-29T04:50:43;10.20;99.90
51500;DHT22;39101;53.478;6.158;2023-05-29T04:53:10;10.20;99.90
51500;DHT22;39101;53.478;6.158;2023-05-29T04:55:36;10.30;99.90
51500;DHT22;39101;53.478;6.158;2023-05-29T04:58:02;10.30;99.90
51500;DHT22;39101;53.478;6.158;2023-05-29T05:00:28;10.30;99.90
51500;DHT22;39101;53.478;6.158;2023-05-29T05:02:53;10.30;99.90
51500;DHT22;39101;53.478;6.158;2023-05-29T05:05:19;10.30;99.90
51500;DHT22;39101;53.478;6.158;2023-05-29T05:07:45;10.30;99.90
51500;DHT22;39101;53.478;6.158;2023-05-29T05:10:11;10.30;99.90
51500;DHT22;39101;53.478;6.158;2023-05-29T05:12:37;10.30;99.90
51500;DHT22;39101;53.478;6.158;2023-05-29T05:15:03;10.30;99.90
51500;DHT22;39101;53.478;6.158;2023-05-29T05:17:29;10.30;99.90
51500;DHT22;39101;53.478;6.158;2023-05-29T05:19:55;10.40;99.90
51500;DHT22;39101;53.478;6.158;2023-05-29T05:22:21;10.40;99.90
51500;DHT22;39101;53.478;6.158;2023-05-29T05:24:47;10.40;99.90
51500;DHT22;39101;53.478;6.158;2023-05-29T05:27:12;10.50;99.90
51500;DHT22;39101;53.478;6.158;2023-05-29T05:29:38;10.60;99.90
51500;DHT22;39101;53.478;6.158;2023-05-29T05:32:04;10.40;99.90
51500;DHT22;39101;53.478;6.158;2023-05-29T05:34:30;10.50;99.90
51500;DHT22;39101;53.478;6.158;2023-05-29T05:36:55;10.50;99.90
51500;DHT22;39101;53.478;6.158;2023-05-29T05:39:21;10.50;99.90
51500;DHT22;39101;53.478;6.158;2023-05-29T05:41:47;10.50;99.90
51500;DHT22;39101;53.478;6.158;2023-05-29T05:44:13;10.60;99.90
51500;DHT22;39101;53.478;6.158;2023-05-29T05:46:39;10.60;99.90
51500;DHT22;39101;53.478;6.158;2023-05-29T05:49:04;10.60;99.90
51500;DHT22;39101;53.478;6.158;2023-05-29T05:51:30;10.60;99.90
51500;DHT22;39101;53.478;6.158;2023-05-29T05:53:56;10.60;99.90
51500;DHT22;39101;53.478;6.158;2023-05-29T05:56:22;10.60;99.90
51500;DHT22;39101;53.478;6.158;2023-05-29T05:58:48;10.60;99.90
51500;DHT22;39101;53.478;6.158;2023-05-29T06:01:15;10.70;99.90
51500;DHT22;39101;53.478;6.158;2023-05-29T06:03:41;10.80;99.90
51500;DHT22;39101;53.478;6.158;2023-05-29T06:06:06;10.90;99.90
51500;DHT22;39101;53.478;6.158;2023-05-29T06:08:34;10.90;99.90
51500;DHT22;39101;53.478;6.158;2023-05-29T06:11:00;10.90;99.90
51500;DHT22;39101;53.478;6.158;2023-05-29T06:13:25;11.00;99.90
51500;DHT22;39101;53.478;6.158;2023-05-29T06:15:51;10.90;99.90
51500;DHT22;39101;53.478;6.158;2023-05-29T06:18:17;11.00;99.90
51500;DHT22;39101;53.478;6.158;2023-05-29T06:20:43;11.00;99.90
51500;DHT22;39101;53.478;6.158;2023-05-29T06:23:08;11.00;99.90
51500;DHT22;39101;53.478;6.158;2023-05-29T06:25:34;11.00;99.90
51500;DHT22;39101;53.478;6.158;2023-05-29T06:28:00;11.10;99.90
51500;DHT22;39101;53.478;6.158;2023-05-29T06:30:26;11.10;99.90
51500;DHT22;39101;53.478;6.158;2023-05-29T06:32:52;11.20;99.90
51500;DHT22;39101;53.478;6.158;2023-05-29T06:35:18;11.20;99.90
51500;DHT22;39101;53.478;6.158;2023-05-29T06:37:45;11.20;99.90
51500;DHT22;39101;53.478;6.158;2023-05-29T06:40:12;11.20;99.90
51500;DHT22;39101;53.478;6.158;2023-05-29T06:42:38;11.20;99.90
51500;DHT22;39101;53.478;6.158;2023-05-29T06:45:03;11.40;99.90
51500;DHT22;39101;53.478;6.158;2023-05-29T06:47:29;11.40;99.90
51500;DHT22;39101;53.478;6.158;2023-05-29T06:49:55;11.40;99.90
51500;DHT22;39101;53.478;6.158;2023-05-29T06:52:21;11.40;99.90
51500;DHT22;39101;53.478;6.158;2023-05-29T06:54:46;11.60;99.90
51500;DHT22;39101;53.478;6.158;2023-05-29T06:57:12;11.60;99.90
51500;DHT22;39101;53.478;6.158;2023-05-29T06:59:38;11.70;99.90
51500;DHT22;39101;53.478;6.158;2023-05-29T07:02:04;11.60;99.90
51500;DHT22;39101;53.478;6.158;2023-05-29T07:04:30;11.60;99.90
51500;DHT22;39101;53.478;6.158;2023-05-29T07:06:56;11.60;99.90
51500;DHT22;39101;53.478;6.158;2023-05-29T07:09:22;11.60;99.90
51500;DHT22;39101;53.478;6.158;2023-05-29T07:11:47;11.60;99.90
51500;DHT22;39101;53.478;6.158;2023-05-29T07:14:13;11.70;99.90
51500;DHT22;39101;53.478;6.158;2023-05-29T07:16:39;11.80;99.90
51500;DHT22;39101;53.478;6.158;2023-05-29T07:19:05;11.80;99.90
51500;DHT22;39101;53.478;6.158;2023-05-29T07:21:30;11.90;99.90
51500;DHT22;39101;53.478;6.158;2023-05-29T07:23:56;11.90;99.90
51500;DHT22;39101;53.478;6.158;2023-05-29T07:26:22;11.90;99.90
51500;DHT22;39101;53.478;6.158;2023-05-29T07:28:49;11.90;99.90
51500;DHT22;39101;53.478;6.158;2023-05-29T07:31:14;11.90;99.90
51500;DHT22;39101;53.478;6.158;2023-05-29T07:33:40;11.90;99.90
51500;DHT22;39101;53.478;6.158;2023-05-29T07:36:07;11.90;99.90
51500;DHT22;39101;53.478;6.158;2023-05-29T07:38:33;11.80;99.90
51500;DHT22;39101;53.478;6.158;2023-05-29T07:40:59;11.80;99.90
51500;DHT22;39101;53.478;6.158;2023-05-29T07:43:24;11.80;99.90
51500;DHT22;39101;53.478;6.158;2023-05-29T07:45:50;11.80;99.90
51500;DHT22;39101;53.478;6.158;2023-05-29T07:48:16;11.80;99.90
51500;DHT22;39101;53.478;6.158;2023-05-29T07:50:41;11.80;99.90
51500;DHT22;39101;53.478;6.158;2023-05-29T07:53:07;11.80;99.90
51500;DHT22;39101;53.478;6.158;2023-05-29T07:55:34;11.80;99.90
51500;DHT22;39101;53.478;6.158;2023-05-29T07:58:00;11.80;99.90
51500;DHT22;39101;53.478;6.158;2023-05-29T08:00:27;11.80;99.90
51500;DHT22;39101;53.478;6.158;2023-05-29T08:02:53;11.90;99.90
51500;DHT22;39101;53.478;6.158;2023-05-29T08:05:19;11.90;99.90
51500;DHT22;39101;53.478;6.158;2023-05-29T08:07:45;11.90;99.90
51500;DHT22;39101;53.478;6.158;2023-05-29T08:10:12;12.00;99.90
51500;DHT22;39101;53.478;6.158;2023-05-29T08:12:38;12.00;99.90
51500;DHT22;39101;53.478;6.158;2023-05-29T08:15:04;12.10;99.90
51500;DHT22;39101;53.478;6.158;2023-05-29T08:17:29;12.10;99.90
51500;DHT22;39101;53.478;6.158;2023-05-29T08:19:55;12.20;99.90
51500;DHT22;39101;53.478;6.158;2023-05-29T08:22:28;12.20;99.90
51500;DHT22;39101;53.478;6.158;2023-05-29T08:24:54;12.20;99.90
51500;DHT22;39101;53.478;6.158;2023-05-29T08:27:20;12.20;99.90
51500;DHT22;39101;53.478;6.158;2023-05-29T08:29:46;12.20;99.90
51500;DHT22;39101;53.478;6.158;2023-05-29T08:32:12;12.20;99.90
51500;DHT22;39101;53.478;6.158;2023-05-29T08:34:37;12.10;99.90
51500;DHT22;39101;53.478;6.158;2023-05-29T08:37:04;12.10;99.90
51500;DHT22;39101;53.478;6.158;2023-05-29T08:39:30;12.10;99.90
51500;DHT22;39101;53.478;6.158;2023-05-29T08:41:59;12.00;99.90
51500;DHT22;39101;53.478;6.158;2023-05-29T08:44:26;12.10;99.90
51500;DHT22;39101;53.478;6.158;2023-05-29T08:46:55;12.00;99.90
51500;DHT22;39101;53.478;6.158;2023-05-29T08:49:21;12.00;99.90
51500;DHT22;39101;53.478;6.158;2023-05-29T08:52:18;12.00;99.90
51500;DHT22;39101;53.478;6.158;2023-05-29T08:54:41;12.00;99.90
51500;DHT22;39101;53.478;6.158;2023-05-29T08:57:07;12.10;99.90
51500;DHT22;39101;53.478;6.158;2023-05-29T08:59:34;12.10;99.90
51500;DHT22;39101;53.478;6.158;2023-05-29T09:02:02;12.20;99.90
51500;DHT22;39101;53.478;6.158;2023-05-29T09:04:30;12.30;99.90
51500;DHT22;39101;53.478;6.158;2023-05-29T09:06:58;12.30;99.90
51500;DHT22;39101;53.478;6.158;2023-05-29T09:09:25;12.40;99.90
51500;DHT22;39101;53.478;6.158;2023-05-29T09:11:53;12.40;99.90
51500;DHT22;39101;53.478;6.158;2023-05-29T09:14:39;12.40;99.90
51500;DHT22;39101;53.478;6.158;2023-05-29T09:17:06;12.50;99.90
51500;DHT22;39101;53.478;6.158;2023-05-29T09:19:34;12.50;99.90
51500;DHT22;39101;53.478;6.158;2023-05-29T09:22:05;12.50;99.90
51500;DHT22;39101;53.478;6.158;2023-05-29T09:24:35;12.60;99.90
51500;DHT22;39101;53.478;6.158;2023-05-29T09:27:04;12.70;99.90
51500;DHT22;39101;53.478;6.158;2023-05-29T09:29:31;12.70;99.90
51500;DHT22;39101;53.478;6.158;2023-05-29T09:31:58;12.70;99.90
51500;DHT22;39101;53.478;6.158;2023-05-29T09:34:24;12.80;99.90
51500;DHT22;39101;53.478;6.158;2023-05-29T09:36:53;12.90;99.90
51500;DHT22;39101;53.478;6.158;2023-05-29T09:39:19;12.90;99.90
51500;DHT22;39101;53.478;6.158;2023-05-29T09:41:45;13.00;99.90
51500;DHT22;39101;53.478;6.158;2023-05-29T09:44:14;13.10;99.90
51500;DHT22;39101;53.478;6.158;2023-05-29T09:46:41;12.90;99.90
51500;DHT22;39101;53.478;6.158;2023-05-29T09:49:22;13.10;99.90
51500;DHT22;39101;53.478;6.158;2023-05-29T09:51:48;13.10;99.90
51500;DHT22;39101;53.478;6.158;2023-05-29T09:54:18;13.20;99.90
51500;DHT22;39101;53.478;6.158;2023-05-29T09:56:44;13.30;99.90
51500;DHT22;39101;53.478;6.158;2023-05-29T09:59:12;13.30;99.90
51500;DHT22;39101;53.478;6.158;2023-05-29T10:01:43;13.40;99.90
51500;DHT22;39101;53.478;6.158;2023-05-29T10:04:09;13.30;99.90
51500;DHT22;39101;53.478;6.158;2023-05-29T10:06:36;13.20;99.90
51500;DHT22;39101;53.478;6.158;2023-05-29T10:09:03;13.30;99.90
51500;DHT22;39101;53.478;6.158;2023-05-29T10:11:31;13.40;99.90
51500;DHT22;39101;53.478;6.158;2023-05-29T10:13:59;13.50;99.90
51500;DHT22;39101;53.478;6.158;2023-05-29T10:16:27;13.60;99.90
51500;DHT22;39101;53.478;6.158;2023-05-29T10:18:55;13.70;99.90
51500;DHT22;39101;53.478;6.158;2023-05-29T10:21:21;13.70;99.90
51500;DHT22;39101;53.478;6.158;2023-05-29T10:23:49;13.70;99.90
51500;DHT22;39101;53.478;6.158;2023-05-29T10:26:21;13.70;99.90
51500;DHT22;39101;53.478;6.158;2023-05-29T10:39:50;13.80;99.90
51500;DHT22;39101;53.478;6.158;2023-05-29T10:42:45;13.80;99.90
51500;DHT22;39101;53.478;6.158;2023-05-29T10:50:47;13.70;99.90
51500;DHT22;39101;53.478;6.158;2023-05-29T10:53:31;13.80;99.90
51500;DHT22;39101;53.478;6.158;2023-05-29T10:55:59;13.80;99.90
51500;DHT22;39101;53.478;6.158;2023-05-29T10:58:26;13.80;99.90
51500;DHT22;39101;53.478;6.158;2023-05-29T11:00:54;13.90;99.90
51500;DHT22;39101;53.478;6.158;2023-05-29T11:03:29;13.90;99.90
51500;DHT22;39101;53.478;6.158;2023-05-29T11:06:05;14.00;99.90
51500;DHT22;39101;53.478;6.158;2023-05-29T11:08:47;14.00;99.90
51500;DHT22;39101;53.478;6.158;2023-05-29T11:11:14;13.80;99.90
51500;DHT22;39101;53.478;6.158;2023-05-29T11:13:40;13.80;99.90
51500;DHT22;39101;53.478;6.158;2023-05-29T11:18:45;13.80;99.90
51500;DHT22;39101;53.478;6.158;2023-05-29T11:24:28;13.70;99.90
51500;DHT22;39101;53.478;6.158;2023-05-29T11:26:56;13.80;99.90
51500;DHT22;39101;53.478;6.158;2023-05-29T11:29:27;13.80;99.90
51500;DHT22;39101;53.478;6.158;2023-05-29T11:32:06;13.80;99.90
51500;DHT22;39101;53.478;6.158;2023-05-29T11:34:39;13.90;99.90
51500;DHT22;39101;53.478;6.158;2023-05-29T11:37:05;13.90;99.90
51500;DHT22;39101;53.478;6.158;2023-05-29T11:39:36;13.90;99.90
51500;DHT22;39101;53.478;6.158;2023-05-29T11:42:02;13.90;99.90
51500;DHT22;39101;53.478;6.158;2023-05-29T11:44:28;13.90;99.90
51500;DHT22;39101;53.478;6.158;2023-05-29T11:47:04;14.00;99.90
51500;DHT22;39101;53.478;6.158;2023-05-29T11:49:31;13.90;99.90
51500;DHT22;39101;53.478;6.158;2023-05-29T11:52:14;13.90;99.90
51500;DHT22;39101;53.478;6.158;2023-05-29T11:54:40;13.80;99.90
51500;DHT22;39101;53.478;6.158;2023-05-29T11:57:20;13.90;99.90
51500;DHT22;39101;53.478;6.158;2023-05-29T11:59:46;13.90;99.90
51500;DHT22;39101;53.478;6.158;2023-05-29T12:02:12;14.00;99.90
51500;DHT22;39101;53.478;6.158;2023-05-29T12:04:37;13.80;99.90
51500;DHT22;39101;53.478;6.158;2023-05-29T12:07:17;13.90;99.90
51500;DHT22;39101;53.478;6.158;2023-05-29T12:09:43;13.90;99.90
51500;DHT22;39101;53.478;6.158;2023-05-29T12:12:09;13.70;99.90
51500;DHT22;39101;53.478;6.158;2023-05-29T12:14:34;13.80;99.90
51500;DHT22;39101;53.478;6.158;2023-05-29T12:17:00;13.80;99.90
51500;DHT22;39101;53.478;6.158;2023-05-29T12:19:26;13.80;99.90
51500;DHT22;39101;53.478;6.158;2023-05-29T12:21:51;13.90;99.90
51500;DHT22;39101;53.478;6.158;2023-05-29T12:24:20;13.90;99.90
51500;DHT22;39101;53.478;6.158;2023-05-29T12:26:46;13.90;99.90
51500;DHT22;39101;53.478;6.158;2023-05-29T12:29:15;13.90;99.90
51500;DHT22;39101;53.478;6.158;2023-05-29T12:31:41;14.00;99.90
51500;DHT22;39101;53.478;6.158;2023-05-29T12:36:35;13.90;99.90
51500;DHT22;39101;53.478;6.158;2023-05-29T12:39:06;13.90;99.90
51500;DHT22;39101;53.478;6.158;2023-05-29T12:41:34;13.90;99.90
51500;DHT22;39101;53.478;6.158;2023-05-29T12:44:02;13.90;99.90
51500;DHT22;39101;53.478;6.158;2023-05-29T12:46:34;14.00;99.90
51500;DHT22;39101;53.478;6.158;2023-05-29T12:49:11;14.00;99.90
51500;DHT22;39101;53.478;6.158;2023-05-29T12:51:44;13.90;99.90
51500;DHT22;39101;53.478;6.158;2023-05-29T12:54:16;14.00;99.90
51500;DHT22;39101;53.478;6.158;2023-05-29T12:56:42;14.00;99.90
51500;DHT22;39101;53.478;6.158;2023-05-29T12:59:09;13.90;99.90
51500;DHT22;39101;53.478;6.158;2023-05-29T13:01:36;13.90;99.90
51500;DHT22;39101;53.478;6.158;2023-05-29T13:04:04;13.80;99.90
51500;DHT22;39101;53.478;6.158;2023-05-29T13:06:32;14.00;99.90
51500;DHT22;39101;53.478;6.158;2023-05-29T13:08:58;14.00;99.90
51500;DHT22;39101;53.478;6.158;2023-05-29T13:11:24;13.90;99.90
51500;DHT22;39101;53.478;6.158;2023-05-29T13:13:51;13.90;99.90
51500;DHT22;39101;53.478;6.158;2023-05-29T13:16:17;13.90;99.90
51500;DHT22;39101;53.478;6.158;2023-05-29T13:18:46;13.90;99.90
51500;DHT22;39101;53.478;6.158;2023-05-29T13:21:11;13.90;99.90
51500;DHT22;39101;53.478;6.158;2023-05-29T13:23:37;13.90;99.90
51500;DHT22;39101;53.478;6.158;2023-05-29T13:26:06;13.80;99.90
51500;DHT22;39101;53.478;6.158;2023-05-29T13:28:32;13.90;99.90
51500;DHT22;39101;53.478;6.158;2023-05-29T13:30:59;13.80;99.90
51500;DHT22;39101;53.478;6.158;2023-05-29T13:33:25;13.80;99.90
51500;DHT22;39101;53.478;6.158;2023-05-29T13:35:51;13.70;99.90
51500;DHT22;39101;53.478;6.158;2023-05-29T13:38:16;13.80;99.90
51500;DHT22;39101;53.478;6.158;2023-05-29T13:40:42;13.90;99.90
51500;DHT22;39101;53.478;6.158;2023-05-29T13:43:08;13.90;99.90
51500;DHT22;39101;53.478;6.158;2023-05-29T13:45:35;13.70;99.90
51500;DHT22;39101;53.478;6.158;2023-05-29T13:48:00;13.80;99.90
51500;DHT22;39101;53.478;6.158;2023-05-29T13:50:26;13.90;99.90
51500;DHT22;39101;53.478;6.158;2023-05-29T13:52:52;13.90;99.90
51500;DHT22;39101;53.478;6.158;2023-05-29T13:55:18;13.90;99.90
51500;DHT22;39101;53.478;6.158;2023-05-29T13:57:43;13.90;99.90
51500;DHT22;39101;53.478;6.158;2023-05-29T14:00:11;13.80;99.90
51500;DHT22;39101;53.478;6.158;2023-05-29T14:02:37;13.90;99.90
51500;DHT22;39101;53.478;6.158;2023-05-29T14:05:03;13.80;99.90
51500;DHT22;39101;53.478;6.158;2023-05-29T14:07:29;13.80;99.90
51500;DHT22;39101;53.478;6.158;2023-05-29T14:09:54;13.60;99.90
51500;DHT22;39101;53.478;6.158;2023-05-29T14:12:20;13.80;99.90
51500;DHT22;39101;53.478;6.158;2023-05-29T14:14:46;13.70;99.90
51500;DHT22;39101;53.478;6.158;2023-05-29T14:17:13;13.70;99.90
51500;DHT22;39101;53.478;6.158;2023-05-29T14:19:38;13.70;99.90
51500;DHT22;39101;53.478;6.158;2023-05-29T14:22:04;13.80;99.90
51500;DHT22;39101;53.478;6.158;2023-05-29T14:24:30;13.90;99.90
51500;DHT22;39101;53.478;6.158;2023-05-29T14:26:55;13.80;99.90
51500;DHT22;39101;53.478;6.158;2023-05-29T14:29:21;13.80;99.90
51500;DHT22;39101;53.478;6.158;2023-05-29T14:31:47;13.80;99.90
51500;DHT22;39101;53.478;6.158;2023-05-29T14:34:12;13.70;99.90
51500;DHT22;39101;53.478;6.158;2023-05-29T14:36:39;13.80;99.90
51500;DHT22;39101;53.478;6.158;2023-05-29T14:39:05;13.80;99.90
51500;DHT22;39101;53.478;6.158;2023-05-29T14:41:31;13.90;99.90
51500;DHT22;39101;53.478;6.158;2023-05-29T14:43:58;13.80;99.90
51500;DHT22;39101;53.478;6.158;2023-05-29T14:46:24;13.90;99.90
51500;DHT22;39101;53.478;6.158;2023-05-29T14:48:51;14.00;99.90
51500;DHT22;39101;53.478;6.158;2023-05-29T14:51:17;14.00;99.90
51500;DHT22;39101;53.478;6.158;2023-05-29T14:53:44;13.90;99.90
51500;DHT22;39101;53.478;6.158;2023-05-29T14:56:10;13.90;99.90
51500;DHT22;39101;53.478;6.158;2023-05-29T14:58:35;13.90;99.90
51500;DHT22;39101;53.478;6.158;2023-05-29T15:01:01;13.90;99.90
51500;DHT22;39101;53.478;6.158;2023-05-29T15:03:27;13.80;99.90
51500;DHT22;39101;53.478;6.158;2023-05-29T15:05:54;13.90;99.90
51500;DHT22;39101;53.478;6.158;2023-05-29T15:08:20;14.10;99.90
51500;DHT22;39101;53.478;6.158;2023-05-29T15:10:45;14.00;99.90
51500;DHT22;39101;53.478;6.158;2023-05-29T15:13:11;14.10;99.90
51500;DHT22;39101;53.478;6.158;2023-05-29T15:15:36;14.10;99.90
51500;DHT22;39101;53.478;6.158;2023-05-29T15:18:02;14.20;99.90
51500;DHT22;39101;53.478;6.158;2023-05-29T15:20:28;14.40;99.90
51500;DHT22;39101;53.478;6.158;2023-05-29T15:22:54;14.50;99.90
51500;DHT22;39101;53.478;6.158;2023-05-29T15:25:21;14.70;99.90
51500;DHT22;39101;53.478;6.158;2023-05-29T15:27:48;15.10;99.90
51500;DHT22;39101;53.478;6.158;2023-05-29T15:30:18;15.10;99.90
51500;DHT22;39101;53.478;6.158;2023-05-29T15:32:45;15.30;99.90
51500;DHT22;39101;53.478;6.158;2023-05-29T15:35:13;15.40;99.90
51500;DHT22;39101;53.478;6.158;2023-05-29T15:37:42;15.60;99.90
51500;DHT22;39101;53.478;6.158;2023-05-29T15:40:09;15.80;99.90
51500;DHT22;39101;53.478;6.158;2023-05-29T15:42:35;15.70;99.90
51500;DHT22;39101;53.478;6.158;2023-05-29T15:45:02;15.60;99.90
51500;DHT22;39101;53.478;6.158;2023-05-29T15:47:29;15.60;99.90
51500;DHT22;39101;53.478;6.158;2023-05-29T15:49:55;15.70;99.90
51500;DHT22;39101;53.478;6.158;2023-05-29T15:52:21;15.70;99.90
51500;DHT22;39101;53.478;6.158;2023-05-29T15:54:46;15.80;99.90
51500;DHT22;39101;53.478;6.158;2023-05-29T15:57:12;16.00;99.90
51500;DHT22;39101;53.478;6.158;2023-05-29T15:59:38;16.00;99.90
51500;DHT22;39101;53.478;6.158;2023-05-29T16:02:04;16.00;99.90